Time;durP1;ratioP1;P1;durP2;ratioP2;P2;SDS_P1;SDS_P2;PMS_P1;PMS_P2;Temp;Humidity;BMP_temperature;BMP_pressure;BME280_temperature;BME280_humidity;BME280_pressure;Samples;Min_cycle;Max_cycle;Signal;HPM_P1;HPM_P2
2022/06/10 00:16:55;;;;;;;;;;;;;;;;;;;;;
2022/06/10 00:20:39;;;;;;;;;;;;;;;;;;;;;
2022/06/10 00:23:59;;;;;;;;;3.00;2.00;;;;;19.11;100.00;100436.78;5712952;24;68526;-96
2022/06/10 00:30:16;;;;;;;;;2.00;2.00;;;;;19.23;100.00;100445.72;5676292;25;46026;-95
2022/06/10 00:33:45;;;;;;;;;;;;;;;;;;;;;
2022/06/10 00:43:48;;;;;;;;;3.67;3.00;;;;;19.14;100.00;100431.50;5800014;24;46247;-95
2022/06/10 00:51:10;;;;;;;;;;;;;;;;;;;;;
2022/06/10 00:53:49;;;;;;;;;;;;;;;;;;;;;
2022/06/10 00:57:19;;;;;;;;;6.00;3.00;;;;;19.20;100.00;100423.56;5754484;24;74361;-94
2022/06/10 01:00:35;;;;;;;;;;;;;;;;;;;;;
2022/06/10 01:13:05;;;;;;;;;;;;;;;;;;;;;
2022/06/10 02:26:27;;;;;;;;;;;;;;;;;;;;;
2022/06/10 03:26:40;;;;;;;;;6.00;3.00;;;;;17.92;100.00;100483.69;5916242;24;45660;-94
2022/06/10 03:29:55;;;;;;;;;2.00;2.00;;;;;17.86;100.00;100480.09;5917767;24;45419;-95
2022/06/10 03:33:57;;;;;;;;;;;;;;;;;;;;;
2022/06/10 03:36:24;;;;;;;;;5.33;3.67;;;;;17.81;100.00;100478.25;5912911;24;45734;-95
2022/06/10 03:39:17;;;;;;;;;2.00;2.00;;;;;17.86;100.00;100493.38;5917885;24;46992;-93
2022/06/10 03:42:13;;;;;;;;;4.00;3.33;;;;;17.84;100.00;100492.47;5862983;24;46126;-94
2022/06/10 03:49:54;;;;;;;;;;;;;;;;;;;;;
2022/06/10 03:56:38;;;;;;;;;;;;;;;;;;;;;
2022/06/10 03:59:31;;;;;;;;;;;;;;;;;;;;;
2022/06/10 04:02:21;;;;;;;;;;;;;;;;;;;;;
2022/06/10 04:05:44;;;;;;;;;;;;;;;;;;;;;
2022/06/10 04:08:29;;;;;;;;;2.00;2.00;;;;;17.57;100.00;100472.72;5891504;24;71503;-95
2022/06/10 04:11:19;;;;;;;;;4.00;2.00;;;;;17.52;100.00;100463.81;5891303;24;45472;-94
2022/06/10 04:14:09;;;;;;;;;3.00;3.00;;;;;17.50;100.00;100460.22;5893292;24;45216;-93
2022/06/10 04:16:46;;;;;;;;;3.67;2.67;;;;;17.59;100.00;100484.22;5896377;24;47815;-93
2022/06/10 04:19:57;;;;;;;;;3.00;2.00;;;;;17.67;100.00;100496.69;5895959;24;45427;-94
2022/06/10 04:23:16;;;;;;;;;;;;;;;;;;;;;
2022/06/10 04:29:53;;;;;;;;;;;;;;;;;;;;;
2022/06/10 04:32:46;;;;;;;;;;;;;;;;;;;;;
2022/06/10 05:10:50;;;;;;;;;4.33;3.00;;;;;18.52;100.00;100486.06;5939506;22;8658901;-94
2022/06/10 05:13:47;;;;;;;;;2.33;2.00;;;;;18.58;100.00;100487.84;6296462;22;45340;-94
2022/06/10 05:16:43;;;;;;;;;2.00;2.00;;;;;18.59;100.00;100472.81;6320075;22;45490;-94
2022/06/10 05:19:09;;;;;;;;;1.00;1.00;;;;;18.64;100.00;100471.97;6341556;22;45390;-94
2022/06/10 05:21:42;;;;;;;;;3.67;3.00;;;;;18.81;100.00;100484.47;6343154;22;47131;-94
2022/06/10 05:24:07;;;;;;;;;2.00;2.00;;;;;18.84;100.00;100479.19;6323374;22;45447;-93
2022/06/10 05:26:33;;;;;;;;;3.00;2.67;;;;;18.82;100.00;100464.09;6315639;22;45359;-94
2022/06/10 05:29:02;;;;;;;;;3.00;3.00;;;;;19.07;100.00;100486.41;6315428;22;45394;-92
2022/06/10 05:31:28;;;;;;;;;2.67;2.00;;;;;19.13;100.00;100484.66;6314931;22;47179;-93
2022/06/10 05:36:37;;;;;;;;;2.00;1.00;;;;;19.23;100.00;100480.31;6342952;22;45216;-92
2022/06/10 05:39:05;;;;;;;;;5.33;3.00;;;;;19.33;100.00;100475.97;6343464;22;45268;-93
2022/06/10 05:44:15;;;;;;;;;5.00;5.00;;;;;19.41;100.00;100474.19;6343287;22;45355;-93
2022/06/10 05:46:41;;;;;;;;;1.33;1.33;;;;;19.45;100.00;100465.34;6315263;22;45457;-92
2022/06/10 05:49:14;;;;;;;;;3.33;2.67;;;;;19.48;100.00;100470.66;6314876;22;45463;-94
2022/06/10 05:51:40;;;;;;;;;2.00;2.00;;;;;19.62;100.00;100481.38;6316783;22;48178;-94
2022/06/10 05:54:05;;;;;;;;;3.67;2.00;;;;;19.77;100.00;100509.81;6317779;22;45241;-93
2022/06/10 05:56:31;;;;;;;;;3.00;2.00;;;;;19.76;100.00;100486.78;6319880;22;45195;-94
2022/06/10 05:58:56;;;;;;;;;4.00;2.00;;;;;19.91;100.00;100494.78;6324012;22;45644;-92
2022/06/10 06:01:22;;;;;;;;;3.33;3.33;;;;;20.07;100.00;100498.38;6318733;22;47061;-92
2022/06/10 06:03:48;;;;;;;;;2.67;2.67;;;;;20.38;100.00;100508.22;6314214;22;45451;-92
2022/06/10 06:06:14;;;;;;;;;3.33;3.00;;;;;20.39;100.00;100481.53;6343642;22;45343;-94
2022/06/10 06:08:39;;;;;;;;;1.67;1.67;;;;;20.55;100.00;100502.88;6314625;22;45396;-93
2022/06/10 06:11:05;;;;;;;;;2.67;2.67;;;;;20.51;100.00;100483.31;6308714;22;46858;-92
2022/06/10 06:13:30;;;;;;;;;2.00;2.00;;;;;20.58;100.00;100494.88;6335385;22;45452;-92
2022/06/10 06:16:01;;;;;;;;;4.00;3.00;;;;;20.53;100.00;100489.56;6307071;22;45449;-93
2022/06/10 06:18:26;;;;;;;;;2.00;2.00;;;;;20.54;100.00;100495.75;6306396;22;45374;-92
2022/06/10 06:20:52;;;;;;;;;3.67;2.67;;;;;20.71;100.00;100516.19;6307100;22;47908;-93
2022/06/10 06:23:17;;;;;;;;;7.00;2.00;;;;;20.67;100.00;100496.63;6335321;22;45422;-92
2022/06/10 06:25:44;;;;;;;;;2.00;2.00;;;;;20.72;100.00;100502.84;6336533;22;45583;-92
2022/06/10 06:28:10;;;;;;;;;4.67;3.33;;;;;20.78;100.00;100515.31;6336166;22;45261;-93
2022/06/10 06:30:37;;;;;;;;;3.33;2.00;;;;;20.82;100.00;100518.88;6307472;22;47144;-91
2022/06/10 06:33:05;;;;;;;;;1.33;1.33;;;;;20.85;100.00;100525.06;6336601;22;45173;-93
2022/06/10 06:35:33;;;;;;;;;3.00;1.67;;;;;20.86;100.00;100508.19;6337863;22;45209;-91
2022/06/10 06:37:59;;;;;;;;;3.00;1.33;;;;;20.91;100.00;100510.84;6308223;22;45325;-94
2022/06/10 06:40:24;;;;;;;;;3.67;2.67;;;;;20.93;100.00;100502.81;6339945;22;45412;-92
2022/06/10 06:42:50;;;;;;;;;4.00;2.33;;;;;20.98;100.00;100520.59;6343546;22;45344;-92
2022/06/10 06:45:21;;;;;;;;;3.00;2.00;;;;;21.02;100.00;100517.97;6308084;22;45657;-93
2022/06/10 06:47:47;;;;;;;;;4.00;2.67;;;;;21.05;100.00;100509.97;6334195;22;45286;-91
2022/06/10 06:50:16;;;;;;;;;2.00;2.00;;;;;21.11;100.00;100507.28;6333899;22;45615;-93
2022/06/10 06:52:42;;;;;;;;;3.00;1.67;;;;;21.14;100.00;100501.94;6333166;22;45142;-91
2022/06/10 06:55:08;;;;;;;;;2.67;2.00;;;;;21.20;100.00;100509.94;6305727;22;45350;-93
2022/06/10 06:57:34;;;;;;;;;2.00;2.00;;;;;21.23;100.00;100510.81;6305334;22;45598;-92
2022/06/10 07:00:06;;;;;;;;;2.00;1.00;;;;;21.29;100.00;100510.78;6305219;22;47420;-92
2022/06/10 07:02:34;;;;;;;;;1.33;1.33;;;;;21.34;100.00;100511.66;6335297;22;45477;-92
2022/06/10 07:04:59;;;;;;;;;3.00;2.33;;;;;21.39;100.00;100512.53;6304781;22;45433;-93
2022/06/10 07:07:25;;;;;;;;;3.00;1.33;;;;;21.46;100.00;100515.19;6333334;22;45693;-92
2022/06/10 07:09:51;;;;;;;;;4.67;2.00;;;;;21.51;100.00;100506.28;6305341;22;48117;-92
2022/06/10 07:12:16;;;;;;;;;3.67;3.00;;;;;21.53;100.00;100492.91;6334499;22;45729;-92
2022/06/10 07:14:42;;;;;;;;;2.33;2.00;;;;;21.57;100.00;100499.13;6305453;22;45306;-92
2022/06/10 07:17:08;;;;;;;;;1.67;1.33;;;;;21.60;100.00;100509.78;6300535;22;45530;-91
2022/06/10 07:19:33;;;;;;;;;4.33;3.00;;;;;21.63;100.00;100505.31;6304118;22;45320;-92
2022/06/10 07:21:58;;;;;;;;;3.00;1.67;;;;;21.69;100.00;100506.19;6301619;22;48608;-91
2022/06/10 07:24:24;;;;;;;;;2.00;2.00;;;;;21.75;100.00;100503.50;6303973;22;45662;-91
2022/06/10 07:26:50;;;;;;;;;3.67;2.00;;;;;21.81;100.00;100515.91;6305027;22;45264;-93
2022/06/10 07:29:16;;;;;;;;;3.33;1.33;;;;;21.87;100.00;100514.13;6298072;22;46063;-92
2022/06/10 07:31:41;;;;;;;;;2.67;2.67;;;;;21.98;100.00;100524.75;6299562;22;45289;-91
2022/06/10 07:34:08;;;;;;;;;4.67;3.33;;;;;22.09;100.00;100515.78;6302739;22;45618;-92
2022/06/10 07:36:33;;;;;;;;;3.00;3.00;;;;;22.20;100.00;100521.94;6298615;22;45271;-92
2022/06/10 07:38:58;;;;;;;;;2.00;1.00;;;;;22.35;100.00;100536.09;6302645;22;48730;-90
2022/06/10 07:44:07;;;;;;;;;2.00;2.00;;;;;22.69;100.00;100518.00;6301478;22;45339;-91
2022/06/10 07:46:32;;;;;;;;;3.00;2.00;;;;;22.82;100.00;100524.16;6302561;22;48502;-93
2022/06/10 07:48:58;;;;;;;;;2.33;1.00;;;;;22.94;100.00;100540.09;6299967;22;47803;-92
2022/06/10 07:51:24;;;;;;;;;2.33;1.00;;;;;23.03;100.00;100549.84;6304659;22;45365;-92
2022/06/10 07:53:49;;;;;;;;;2.00;2.00;;;;;23.20;100.00;100548.75;6312936;22;45277;-92
2022/06/10 07:56:16;;;;;;;;;0.67;0.67;;;;;23.46;100.00;100538.66;6314904;22;45221;-91
2022/06/10 07:58:44;;;;;;;;;3.00;2.00;;;;;23.74;100.00;100543.69;6311412;22;47337;-91
2022/06/10 08:01:10;;;;;;;;;2.67;2.67;;;;;23.90;100.00;100539.03;6315688;22;45446;-92
2022/06/10 08:03:38;;;;;;;;;1.67;1.33;;;;;23.98;100.00;100537.13;6310514;22;45285;-92
2022/06/10 08:06:04;;;;;;;;;1.67;1.00;;;;;24.03;100.00;100545.09;6314398;22;45571;-92
2022/06/10 08:08:30;;;;;;;;;5.00;3.67;;;;;24.15;100.00;100549.38;6314555;22;48187;-91
2022/06/10 08:10:55;;;;;;;;;2.00;1.00;;;;;24.25;100.00;100541.22;6314018;22;44773;-92
2022/06/10 08:13:21;;;;;;;;;1.67;1.67;;;;;24.32;100.00;100537.56;6314466;22;44728;-91
2022/06/10 08:15:48;;;;;;;;;1.67;1.67;;;;;24.41;100.00;100539.19;6313993;22;45337;-92
2022/06/10 08:18:19;;;;;;;;;2.67;1.00;;;;;24.43;100.00;100534.72;6347383;22;45438;-95
2022/06/10 08:23:32;;;;;;;;;3.00;2.67;;;;;24.48;100.00;100530.13;6347663;22;44610;-94
2022/06/10 08:25:59;;;;;;;;;1.00;1.00;;;;;24.50;100.00;100539.06;6288609;22;44849;-94
2022/06/10 08:28:25;;;;;;;;;0.33;0.33;;;;;24.41;100.00;100552.63;6315394;22;48501;-93
2022/06/10 08:30:51;;;;;;;;;1.00;0.33;;;;;24.35;100.00;100591.16;6314805;22;45218;-92
2022/06/10 08:33:16;;;;;;;;;1.00;1.00;;;;;24.24;100.00;100575.19;6315857;22;45220;-93
2022/06/10 08:35:42;;;;;;;;;0.67;0.00;;;;;24.28;100.00;100576.06;6345880;22;45275;-93
2022/06/10 08:38:11;;;;;;;;;0.33;0.33;;;;;24.35;100.00;100575.06;6348002;22;45287;-92
2022/06/10 08:40:43;;;;;;;;;1.00;1.00;;;;;24.48;100.00;100580.25;6347139;22;44785;-93
2022/06/10 08:43:20;;;;;;;;;2.00;0.67;;;;;24.48;100.00;100586.47;6347257;22;45320;-90
2022/06/10 08:46:09;;;;;;;;;0.00;0.00;;;;;24.39;100.00;100634.91;6344395;22;45269;-92
2022/06/10 08:49:22;;;;;;;;;0.67;0.00;;;;;24.31;100.00;100624.28;6317152;22;48377;-94
2022/06/10 08:51:57;;;;;;;;;1.00;1.00;;;;;24.20;100.00;100641.38;6304961;22;45761;-93
2022/06/10 08:54:35;;;;;;;;;0.00;0.00;;;;;24.20;100.00;100637.78;6319392;22;45301;-93
2022/06/10 08:57:10;;;;;;;;;0.00;0.00;;;;;24.25;100.00;100676.16;6317740;22;45488;-91
2022/06/10 08:59:47;;;;;;;;;1.00;1.00;;;;;24.16;100.00;100684.34;6328974;22;47711;-91
2022/06/10 09:02:25;;;;;;;;;1.00;1.00;;;;;24.18;100.00;100632.47;6335436;22;44648;-92
2022/06/10 09:05:01;;;;;;;;;0.33;0.33;;;;;24.34;100.00;100643.03;6331924;22;44768;-93
2022/06/10 09:07:50;;;;;;;;;1.00;1.00;;;;;24.50;100.00;100651.75;6329141;22;44861;-92
2022/06/10 09:10:25;;;;;;;;;2.00;1.00;;;;;24.57;100.00;100638.22;6318209;22;47023;-93
2022/06/10 09:13:31;;;;;;;;;1.33;1.33;;;;;24.86;100.00;100626.16;6346656;22;45331;-93
2022/06/10 09:15:59;;;;;;;;;2.67;0.67;;;;;25.33;100.00;100612.81;6318925;22;44762;-92
2022/06/10 09:18:37;;;;;;;;;2.33;0.33;;;;;25.64;100.00;100666.91;6345510;22;45316;-90
2022/06/10 09:21:13;;;;;;;;;1.00;1.00;;;;;25.78;100.00;100659.47;6343638;22;45296;-92
2022/06/10 09:23:43;;;;;;;;;0.33;0.33;;;;;26.04;100.00;100641.03;6317205;22;45895;-92
2022/06/10 09:26:15;;;;;;;;;0.67;0.67;;;;;26.34;100.00;100625.13;6319985;22;45337;-94
2022/06/10 09:28:42;;;;;;;;;3.00;1.00;;;;;26.60;100.00;100676.59;6319001;22;44879;-93
2022/06/10 09:31:38;;;;;;;;;1.00;1.00;;;;;26.79;100.00;100713.84;6323475;22;46458;-93
2022/06/10 09:34:19;;;;;;;;;0.33;0.33;;;;;26.87;100.00;100705.59;6321224;22;45328;-92
2022/06/10 09:36:57;;;;;;;;;0.33;0.33;;;;;26.84;100.00;100693.09;6346291;22;45262;-93
2022/06/10 09:42:42;;;;;;;;;0.00;0.00;;;;;27.19;100.00;100708.44;6344902;22;45266;-92
2022/06/10 09:45:14;;;;;;;;;0.00;0.00;;;;;27.40;100.00;100746.53;6346285;22;45547;-93
2022/06/10 09:47:56;;;;;;;;;2.00;1.00;;;;;27.60;100.00;100708.28;6348698;22;45175;-92
2022/06/10 09:50:28;;;;;;;;;0.67;0.67;;;;;27.84;100.00;100692.41;6348553;22;45236;-92
2022/06/10 09:53:04;;;;;;;;;0.00;0.00;;;;;28.51;100.00;100777.75;6320443;22;48284;-93
2022/06/10 09:55:54;;;;;;;;;0.67;0.00;;;;;30.38;100.00;100759.00;6346941;22;45719;-91
2022/06/10 09:58:42;;;;;;;;;0.67;0.67;;;;;32.62;100.00;100773.16;6345256;22;45194;-92
2022/06/10 10:01:39;;;;;;;;;2.00;2.00;;;;;34.80;100.00;100829.25;6319913;22;45356;-90
2022/06/10 10:04:41;;;;;;;;;3.00;1.00;;;;;36.79;100.00;101530.22;6347988;22;46143;-90
2022/06/10 10:07:16;;;;;;;;;0.33;0.33;;;;;38.78;100.00;101680.69;6315092;22;45335;-92
2022/06/10 10:09:53;;;;;;;;;1.00;1.00;;;;;40.73;100.00;101739.84;6345595;22;44676;-92
2022/06/10 10:12:50;;;;;;;;;0.33;0.00;;;;;42.38;86.68;101834.88;6314126;22;45341;-90
2022/06/10 10:15:27;;;;;;;;;0.00;0.00;;;;;43.65;84.45;101850.16;6318233;22;47016;-91
2022/06/10 10:17:58;;;;;;;;;0.33;0.33;;;;;43.66;74.27;101894.25;6320090;22;45339;-88
2022/06/10 10:20:35;;;;;;;;;0.00;0.00;;;;;42.75;73.86;101887.34;6319763;22;44719;-90
2022/06/10 10:23:01;;;;;;;;;2.67;2.67;;;;;42.35;70.55;101896.66;6319408;22;45518;-92
2022/06/10 10:25:26;;;;;;;;;3.00;2.00;;;;;42.28;73.19;101884.34;6349494;22;46111;-90
2022/06/10 10:27:53;;;;;;;;;2.33;2.33;;;;;41.65;69.24;101889.63;6318025;22;45283;-91
2022/06/10 10:30:23;;;;;;;;;0.00;0.00;;;;;40.21;68.86;101888.03;6348427;22;44609;-89
2022/06/10 10:32:55;;;;;;;;;0.67;0.67;;;;;41.49;71.35;101886.16;6319404;22;44723;-93
2022/06/10 10:35:31;;;;;;;;;1.00;0.00;;;;;42.95;71.47;101879.44;6318333;22;46381;-92
2022/06/10 10:38:01;;;;;;;;;0.00;0.00;;;;;43.63;69.55;101883.44;6319473;22;44998;-91
2022/06/10 10:40:35;;;;;;;;;1.00;1.00;;;;;43.10;63.28;101902.22;6348343;22;45319;-90
2022/06/10 10:43:07;;;;;;;;;1.00;0.00;;;;;42.48;66.61;101893.91;6321483;22;44760;-92
2022/06/10 10:45:38;;;;;;;;;0.00;0.00;;;;;43.05;65.39;101896.16;6322754;22;47148;-94
2022/06/10 10:48:44;;;;;;;;;0.00;0.00;;;;;42.22;63.63;101904.97;6349719;22;45200;-88
2022/06/10 10:51:10;;;;;;;;;0.00;0.00;;;;;40.83;64.16;101899.69;6325477;22;45248;-93
2022/06/10 10:53:40;;;;;;;;;0.67;0.67;;;;;41.33;64.16;101901.00;6347501;22;45521;-93
2022/06/10 10:56:09;;;;;;;;;0.33;0.33;;;;;41.35;64.75;101898.13;6325229;22;47383;-92
2022/06/10 10:58:39;;;;;;;;;0.33;0.33;;;;;40.50;64.79;101890.78;6325247;22;45901;-95
2022/06/10 11:01:08;;;;;;;;;0.00;0.00;;;;;42.22;64.27;101902.19;6352823;22;45281;-94
2022/06/10 11:03:45;;;;;;;;;3.00;1.00;;;;;43.52;65.37;101897.25;6350641;22;45327;-96
2022/06/10 11:06:29;;;;;;;;;1.00;1.00;;;;;45.63;64.94;101903.13;6348458;22;46700;-95
2022/06/10 11:09:02;;;;;;;;;0.00;0.00;;;;;47.60;62.60;101897.34;6320078;22;45239;-96
2022/06/10 11:11:34;;;;;;;;;0.33;0.33;;;;;46.79;58.89;101916.94;6327578;22;45182;-96
2022/06/10 11:14:17;;;;;;;;;1.00;1.00;;;;;44.37;58.28;101890.56;6358080;22;44770;-96
2022/06/10 11:17:11;;;;;;;;;2.00;1.00;;;;;43.50;59.35;101888.19;6326963;22;46239;-92
2022/06/10 11:19:41;;;;;;;;;1.00;1.00;;;;;42.66;59.39;101916.50;6324398;22;45132;-94
2022/06/10 11:22:16;;;;;;;;;1.00;1.00;;;;;40.97;59.18;101908.91;6352336;22;44629;-88
2022/06/10 11:24:49;;;;;;;;;2.00;1.00;;;;;39.11;60.20;101890.03;6324226;22;44793;-95
2022/06/10 11:27:24;;;;;;;;;2.67;2.67;;;;;39.11;61.72;101887.28;6324303;22;46497;-94
2022/06/10 11:30:00;;;;;;;;;0.00;0.00;;;;;41.83;64.81;101880.16;6325821;22;45315;-96
2022/06/10 11:32:30;;;;;;;;;0.00;0.00;;;;;44.45;62.60;101901.88;6327326;22;45351;-95
2022/06/10 11:35:00;;;;;;;;;0.00;0.00;;;;;44.66;59.83;101892.81;6353365;22;45068;-96
2022/06/10 11:37:40;;;;;;;;;0.33;0.33;;;;;43.45;58.72;101907.91;6320517;22;46969;-96
2022/06/10 11:40:14;;;;;;;;;1.00;1.00;;;;;44.27;57.73;101904.28;6323175;22;45769;-94
2022/06/10 11:42:48;;;;;;;;;2.00;1.00;;;;;43.07;58.13;101893.28;6322676;22;45300;-96
2022/06/10 11:45:41;;;;;;;;;0.00;0.00;;;;;41.94;58.99;101891.28;6319904;22;45273;-96
2022/06/10 11:48:46;;;;;;;;;0.67;0.67;;;;;44.12;60.01;101881.50;6349900;22;46744;-93
2022/06/10 11:51:41;;;;;;;;;1.00;1.00;;;;;44.65;58.16;101891.94;6349807;22;45217;-93
2022/06/10 11:54:19;;;;;;;;;2.33;0.67;;;;;43.60;58.04;101885.56;6320415;22;44656;-95
2022/06/10 12:00:31;;;;;;;;;0.00;0.00;;;;;41.88;58.42;101884.34;6347932;22;44961;-94
2022/06/10 12:03:18;;;;;;;;;2.00;0.33;;;;;40.32;59.15;101874.53;6349604;22;44598;-95
2022/06/10 12:05:57;;;;;;;;;0.00;0.00;;;;;41.40;61.28;101865.66;6348832;22;45305;-93
2022/06/10 12:08:25;;;;;;;;;0.00;0.00;;;;;40.91;58.63;101876.28;6347584;22;45187;-96
2022/06/10 12:11:00;;;;;;;;;1.00;1.00;;;;;39.77;59.66;101866.91;6347262;22;45213;-95
2022/06/10 12:13:27;;;;;;;;;1.00;1.00;;;;;38.66;60.44;101868.78;6346889;22;45280;-95
2022/06/10 12:15:59;;;;;;;;;1.00;1.00;;;;;37.89;61.49;101864.75;6320666;22;45419;-95
2022/06/10 12:18:29;;;;;;;;;2.00;1.33;;;;;39.09;62.60;101858.16;6320533;22;45310;-95
2022/06/10 12:21:02;;;;;;;;;0.00;0.00;;;;;38.88;61.74;101863.94;6323293;22;48058;-94
2022/06/10 12:23:30;;;;;;;;;0.33;0.00;;;;;38.26;62.65;101865.53;6323868;22;44720;-95
2022/06/10 12:26:01;;;;;;;;;1.00;1.00;;;;;37.75;62.63;101859.09;6348570;22;45269;-95
2022/06/10 12:28:37;;;;;;;;;1.00;1.00;;;;;36.70;63.61;101829.63;6347677;22;44760;-95
2022/06/10 12:31:44;;;;;;;;;0.00;0.00;;;;;36.14;64.20;101830.44;6320024;22;45550;-95
2022/06/10 12:34:18;;;;;;;;;0.33;0.33;;;;;38.41;66.99;101823.59;6256472;22;45665;-94
2022/06/10 12:36:49;;;;;;;;;0.00;0.00;;;;;38.34;64.50;101841.31;6280802;22;45218;-95
2022/06/10 12:39:45;;;;;;;;;0.00;0.00;;;;;37.58;64.38;101843.56;6251957;22;45319;-92
2022/06/10 12:42:20;;;;;;;;;0.00;0.00;;;;;37.27;64.40;101838.69;6251079;22;46535;-95
2022/06/10 12:44:52;;;;;;;;;0.00;0.00;;;;;36.88;63.69;101843.34;6278680;22;45253;-92
2022/06/10 12:47:36;;;;;;;;;0.00;0.00;;;;;35.99;65.36;101834.75;6278256;22;44669;-95
2022/06/10 12:50:19;;;;;;;;;1.00;1.00;;;;;35.04;65.67;101823.34;6254255;22;44836;-93
2022/06/10 12:53:02;;;;;;;;;1.00;1.00;;;;;34.09;66.56;101812.47;6254886;22;48208;-95
2022/06/10 12:55:52;;;;;;;;;0.67;0.33;;;;;33.31;67.18;101806.13;6255489;22;45989;-94
2022/06/10 12:58:36;;;;;;;;;0.00;0.00;;;;;32.67;68.76;101781.03;6221014;22;45349;-94
2022/06/10 13:01:14;;;;;;;;;2.00;2.00;;;;;32.07;69.47;101766.47;6282140;22;45312;-95
2022/06/10 13:03:40;;;;;;;;;0.67;0.67;;;;;31.49;70.82;101738.25;6257333;22;45974;-96
2022/06/10 13:06:29;;;;;;;;;0.00;0.00;;;;;31.06;71.68;101718.56;6287359;22;44685;-96
2022/06/10 13:09:10;;;;;;;;;0.00;0.00;;;;;30.80;72.82;101695.75;6262027;22;45542;-96
2022/06/10 13:11:36;;;;;;;;;0.00;0.00;;;;;30.65;73.84;101684.34;6339760;22;44856;-96
2022/06/10 13:14:36;;;;;;;;;0.00;0.00;;;;;30.57;73.93;101657.44;6356380;22;45177;-96
2022/06/10 13:17:17;;;;;;;;;0.00;0.00;;;;;30.52;75.51;101630.47;6327894;22;44650;-94
2022/06/10 13:19:54;;;;;;;;;2.00;2.00;;;;;30.69;75.99;101622.84;6327017;22;44743;-94
2022/06/10 13:22:20;;;;;;;;;2.00;0.00;;;;;31.68;76.42;101618.34;6325497;22;45364;-94
2022/06/10 13:24:51;;;;;;;;;0.00;0.00;;;;;31.84;75.71;101655.88;6323717;22;46074;-95
2022/06/10 13:27:27;;;;;;;;;0.33;0.33;;;;;31.58;75.70;101654.81;6324905;22;45332;-96
2022/06/10 13:29:57;;;;;;;;;0.00;0.00;;;;;31.26;75.88;101646.66;6321190;22;45406;-94
2022/06/10 13:32:23;;;;;;;;;1.67;1.67;;;;;30.83;76.06;101641.44;6350753;22;45265;-96
2022/06/10 13:35:04;;;;;;;;;1.00;0.33;;;;;30.45;77.32;101593.66;6322832;22;46200;-96
2022/06/10 13:37:38;;;;;;;;;0.00;0.00;;;;;30.17;78.17;101565.44;6348802;22;44750;-96
2022/06/10 13:40:08;;;;;;;;;2.00;1.00;;;;;30.10;78.26;101569.22;6349395;22;45355;-95
2022/06/10 13:42:37;;;;;;;;;1.00;0.00;;;;;30.54;79.34;101557.28;6348113;22;45262;-95
2022/06/10 13:45:12;;;;;;;;;0.33;0.33;;;;;30.75;78.49;101563.06;6337303;22;45629;-92
2022/06/10 13:47:38;;;;;;;;;2.00;0.00;;;;;30.84;78.42;101578.19;6310931;22;45748;-96
2022/06/10 13:53:00;;;;;;;;;0.00;0.00;;;;;30.94;78.67;101589.69;6332996;22;45395;-96
2022/06/10 13:55:35;;;;;;;;;1.00;1.00;;;;;30.99;79.45;101577.81;6312448;22;47285;-96
2022/06/10 13:58:05;;;;;;;;;0.00;0.00;;;;;31.11;78.87;101592.81;6312300;22;45311;-96
2022/06/10 14:00:35;;;;;;;;;0.00;0.00;;;;;31.29;80.15;101557.97;6311200;22;45237;-96
2022/06/10 14:03:03;;;;;;;;;1.00;0.00;;;;;31.30;79.65;101583.28;6338872;22;45350;-96
2022/06/10 14:05:30;;;;;;;;;0.33;0.33;;;;;31.26;79.65;101587.03;6337869;22;45284;-96
2022/06/10 14:08:01;;;;;;;;;0.00;0.00;;;;;31.71;81.53;101530.53;6341326;22;45273;-96
2022/06/10 14:10:43;;;;;;;;;1.00;1.00;;;;;31.87;79.51;101590.66;6338063;22;45188;-95
2022/06/10 14:13:16;;;;;;;;;1.00;1.00;;;;;31.60;80.46;101572.47;6336442;22;45228;-92
2022/06/10 14:15:49;;;;;;;;;0.33;0.33;;;;;31.35;82.04;101510.81;6336306;22;45524;-96
2022/06/10 14:18:19;;;;;;;;;2.00;1.67;;;;;31.14;81.86;101529.50;6334832;22;45212;-95
2022/06/10 14:20:45;;;;;;;;;2.67;1.67;;;;;30.81;83.25;101470.78;6308700;22;45323;-96
2022/06/10 14:23:32;;;;;;;;;1.00;1.00;;;;;30.48;83.41;101468.09;6309392;22;45332;-96
2022/06/10 14:26:06;;;;;;;;;0.00;0.00;;;;;30.54;83.85;101438.13;6338320;22;46171;-96
2022/06/10 14:28:32;;;;;;;;;1.00;1.00;;;;;30.50;83.42;101458.13;6310715;22;45433;-96
2022/06/10 14:31:00;;;;;;;;;0.00;0.00;;;;;30.41;82.70;101484.50;6336655;22;45489;-94
2022/06/10 14:33:36;;;;;;;;;1.33;1.33;;;;;30.31;82.17;101494.66;6339217;22;45292;-96
2022/06/10 14:36:18;;;;;;;;;1.00;1.00;;;;;30.14;82.56;101480.69;6309399;22;47306;-96
2022/06/10 14:39:03;;;;;;;;;0.67;0.00;;;;;29.82;83.48;101458.94;6309781;22;45288;-95
2022/06/10 14:41:29;;;;;;;;;1.00;1.00;;;;;29.56;85.73;101334.19;6343262;22;45291;-96
2022/06/10 14:44:14;;;;;;;;;0.67;0.67;;;;;29.48;85.75;101339.84;6343089;22;45317;-96
2022/06/10 14:46:40;;;;;;;;;1.67;1.67;;;;;29.52;85.91;101352.34;6321169;22;47534;-96
2022/06/10 14:49:26;;;;;;;;;3.00;1.00;;;;;29.50;86.11;101346.09;6347778;22;45320;-96
2022/06/10 14:51:51;;;;;;;;;1.00;1.00;;;;;29.44;87.05;101316.50;6321730;22;45210;-96
2022/06/10 14:54:19;;;;;;;;;3.00;2.00;;;;;29.39;86.63;101313.00;6322603;22;47984;-96
2022/06/10 14:56:50;;;;;;;;;1.33;0.00;;;;;29.38;88.02;101274.28;6318466;22;47007;-94
2022/06/10 14:59:25;;;;;;;;;3.00;3.00;;;;;29.38;89.99;101198.56;6315316;22;45995;-95
2022/06/10 15:01:57;;;;;;;;;1.33;1.33;;;;;29.36;89.09;101224.75;6317264;22;45225;-96
2022/06/10 15:04:23;;;;;;;;;3.00;2.00;;;;;29.25;88.77;101243.09;6318205;22;45312;-96
2022/06/10 15:07:15;;;;;;;;;1.00;1.00;;;;;29.08;89.50;101206.53;6317395;22;48386;-96
2022/06/10 15:09:42;;;;;;;;;0.33;0.33;;;;;29.00;89.04;101241.84;6339727;22;45213;-96
2022/06/10 15:12:34;;;;;;;;;2.00;1.67;;;;;28.95;91.26;101135.72;6348112;22;44713;-96
2022/06/10 15:15:00;;;;;;;;;2.67;2.00;;;;;28.91;91.20;101125.94;6341814;22;45238;-95
2022/06/10 15:17:30;;;;;;;;;1.00;1.00;;;;;28.80;91.54;101129.78;6315942;22;45963;-94
2022/06/10 15:19:56;;;;;;;;;0.00;0.00;;;;;28.69;90.52;101169.66;6315691;22;45339;-96
2022/06/10 15:22:36;;;;;;;;;0.67;0.67;;;;;28.64;92.34;101076.19;6351591;22;45685;-96
2022/06/10 15:25:03;;;;;;;;;0.33;0.33;;;;;28.69;91.78;101105.75;6357345;22;45166;-94
2022/06/10 15:27:29;;;;;;;;;2.00;1.00;;;;;28.77;92.30;101128.06;6359054;22;46914;-96
2022/06/10 15:29:55;;;;;;;;;1.33;1.00;;;;;28.76;92.27;101112.78;6314264;22;45802;-95
2022/06/10 15:32:21;;;;;;;;;0.00;0.00;;;;;28.70;93.74;101064.34;6343888;22;45292;-96
2022/06/10 15:43:09;;;;;;;;;2.00;1.00;;;;;28.61;92.41;101124.84;6340034;22;45248;-92
2022/06/10 15:45:34;;;;;;;;;1.67;1.67;;;;;28.47;93.21;101084.72;6337434;22;45373;-93
2022/06/10 15:48:00;;;;;;;;;4.00;3.67;;;;;28.40;93.01;101085.75;6310722;22;46143;-90
2022/06/10 15:50:27;;;;;;;;;3.33;3.00;;;;;28.38;93.82;101055.19;6307983;22;45194;-95
2022/06/10 15:52:54;;;;;;;;;3.00;1.00;;;;;28.38;94.13;101031.81;6309869;22;45367;-92
2022/06/10 15:58:19;;;;;;;;;0.00;0.00;;;;;28.30;95.37;100988.81;6337527;22;45252;-92
2022/06/10 16:00:47;;;;;;;;;1.33;1.33;;;;;28.29;96.62;100921.41;6338552;22;45595;-92
2022/06/10 16:03:14;;;;;;;;;1.33;1.33;;;;;28.22;96.19;100944.94;6307192;22;45536;-91
2022/06/10 16:05:42;;;;;;;;;1.00;1.00;;;;;28.11;95.63;100959.63;6333975;22;45373;-91
2022/06/10 16:08:08;;;;;;;;;3.00;0.00;;;;;27.99;95.91;100950.00;6338714;22;46441;-90
2022/06/10 16:10:36;;;;;;;;;2.33;2.33;;;;;27.84;95.85;100947.69;6341453;22;45315;-95
2022/06/10 16:13:03;;;;;;;;;1.00;1.00;;;;;27.65;96.25;100915.75;6342021;22;44761;-96
2022/06/10 16:15:31;;;;;;;;;0.33;0.33;;;;;27.38;95.26;100958.59;6314917;22;45617;-94
2022/06/10 16:17:58;;;;;;;;;1.33;0.33;;;;;27.07;96.41;100920.59;6311031;22;47039;-96
2022/06/10 16:20:25;;;;;;;;;1.00;1.00;;;;;26.84;97.02;100864.53;6310868;22;45362;-96
2022/06/10 16:22:51;;;;;;;;;0.00;0.00;;;;;26.62;96.79;100865.00;6341648;22;45351;-96
2022/06/10 16:25:19;;;;;;;;;1.00;1.00;;;;;26.37;97.66;100830.44;6339594;22;45401;-96
2022/06/10 16:27:45;;;;;;;;;3.00;1.00;;;;;26.18;98.87;100772.50;6335756;22;45495;-90
2022/06/10 16:30:30;;;;;;;;;1.00;1.00;;;;;25.99;99.22;100754.06;6306708;22;45966;-93
2022/06/10 16:32:57;;;;;;;;;2.67;1.67;;;;;25.85;99.14;100743.56;6336573;22;45328;-95